Terminal Aerodrome Forecast
Issued by NWS

Home | Current Version | Previous Version | Text Only | Print | Product List | Glossary On
Versions: 1 2 3 4 5 6 7 8 9 10 11 12 13 14 15
000
FTUS45 KABQ 200500
TAFLVS
TAF
KLVS 200531Z 2006/2106 18010KT P6SM VCSH OVC060
     FM201200 25008KT P6SM SCT025 OVC040
     FM201800 30012G22KT P6SM VCTS SCT040CB OVC070=

USA.gov is the U.S. government's official web portal to all federal, state and local government web resources and services.